sensor_id;sensor_type;location;lat;lon;timestamp;P1;durP1;ratioP1;P2;durP2;ratioP2
76262;SDS011;65080;50.908;6.916;2023-05-19T00:01:03;9.73;;;3.13;;
76262;SDS011;65080;50.908;6.916;2023-05-19T00:03:32;3.70;;;2.80;;
76262;SDS011;65080;50.908;6.916;2023-05-19T00:06:04;5.20;;;3.10;;
76262;SDS011;65080;50.908;6.916;2023-05-19T00:08:34;5.33;;;2.40;;
76262;SDS011;65080;50.908;6.916;2023-05-19T00:11:05;8.50;;;3.83;;
76262;SDS011;65080;50.908;6.916;2023-05-19T00:13:34;4.07;;;2.80;;
76262;SDS011;65080;50.908;6.916;2023-05-19T00:16:02;6.53;;;2.10;;
76262;SDS011;65080;50.908;6.916;2023-05-19T00:18:31;4.77;;;2.73;;
76262;SDS011;65080;50.908;6.916;2023-05-19T00:21:00;7.80;;;2.73;;
76262;SDS011;65080;50.908;6.916;2023-05-19T00:23:29;5.73;;;2.70;;
76262;SDS011;65080;50.908;6.916;2023-05-19T00:25:58;10.00;;;2.73;;
76262;SDS011;65080;50.908;6.916;2023-05-19T00:28:26;5.53;;;2.80;;
76262;SDS011;65080;50.908;6.916;2023-05-19T00:30:54;8.73;;;3.30;;
76262;SDS011;65080;50.908;6.916;2023-05-19T00:33:22;5.67;;;3.50;;
76262;SDS011;65080;50.908;6.916;2023-05-19T00:35:50;7.97;;;2.50;;
76262;SDS011;65080;50.908;6.916;2023-05-19T00:38:18;7.90;;;3.00;;
76262;SDS011;65080;50.908;6.916;2023-05-19T00:40:48;5.13;;;2.70;;
76262;SDS011;65080;50.908;6.916;2023-05-19T00:43:17;4.70;;;2.80;;
76262;SDS011;65080;50.908;6.916;2023-05-19T00:45:45;4.33;;;3.23;;
76262;SDS011;65080;50.908;6.916;2023-05-19T00:48:13;6.03;;;2.73;;
76262;SDS011;65080;50.908;6.916;2023-05-19T00:50:42;4.60;;;3.10;;
76262;SDS011;65080;50.908;6.916;2023-05-19T00:53:11;8.10;;;3.17;;
76262;SDS011;65080;50.908;6.916;2023-05-19T00:55:40;4.97;;;2.80;;
76262;SDS011;65080;50.908;6.916;2023-05-19T00:58:10;8.57;;;3.00;;
76262;SDS011;65080;50.908;6.916;2023-05-19T01:00:39;6.93;;;3.33;;
76262;SDS011;65080;50.908;6.916;2023-05-19T01:03:08;6.17;;;2.70;;
76262;SDS011;65080;50.908;6.916;2023-05-19T01:05:37;4.93;;;2.90;;
76262;SDS011;65080;50.908;6.916;2023-05-19T01:08:07;6.63;;;2.93;;
76262;SDS011;65080;50.908;6.916;2023-05-19T01:10:35;6.10;;;2.93;;
76262;SDS011;65080;50.908;6.916;2023-05-19T01:13:04;9.07;;;3.47;;
76262;SDS011;65080;50.908;6.916;2023-05-19T01:15:37;6.00;;;3.43;;
76262;SDS011;65080;50.908;6.916;2023-05-19T01:18:18;6.20;;;3.13;;
76262;SDS011;65080;50.908;6.916;2023-05-19T01:20:53;6.90;;;3.40;;
76262;SDS011;65080;50.908;6.916;2023-05-19T01:23:32;9.03;;;3.10;;
76262;SDS011;65080;50.908;6.916;2023-05-19T01:26:13;13.10;;;3.93;;
76262;SDS011;65080;50.908;6.916;2023-05-19T01:31:55;6.70;;;3.50;;
76262;SDS011;65080;50.908;6.916;2023-05-19T01:34:26;10.33;;;3.30;;
76262;SDS011;65080;50.908;6.916;2023-05-19T01:36:56;6.13;;;3.70;;
76262;SDS011;65080;50.908;6.916;2023-05-19T01:39:27;7.10;;;3.30;;
76262;SDS011;65080;50.908;6.916;2023-05-19T01:41:56;5.90;;;3.30;;
76262;SDS011;65080;50.908;6.916;2023-05-19T01:44:25;4.50;;;3.07;;
76262;SDS011;65080;50.908;6.916;2023-05-19T01:46:55;8.17;;;3.93;;
76262;SDS011;65080;50.908;6.916;2023-05-19T01:49:23;3.23;;;2.80;;
76262;SDS011;65080;50.908;6.916;2023-05-19T01:51:52;3.43;;;3.00;;
76262;SDS011;65080;50.908;6.916;2023-05-19T01:54:20;8.17;;;3.77;;
76262;SDS011;65080;50.908;6.916;2023-05-19T01:56:49;7.47;;;3.90;;
76262;SDS011;65080;50.908;6.916;2023-05-19T01:59:26;9.43;;;3.70;;
76262;SDS011;65080;50.908;6.916;2023-05-19T02:02:07;3.77;;;2.87;;
76262;SDS011;65080;50.908;6.916;2023-05-19T02:04:46;4.70;;;3.13;;
76262;SDS011;65080;50.908;6.916;2023-05-19T02:07:22;10.30;;;4.07;;
76262;SDS011;65080;50.908;6.916;2023-05-19T02:09:58;7.17;;;4.00;;
76262;SDS011;65080;50.908;6.916;2023-05-19T02:12:32;11.87;;;3.63;;
76262;SDS011;65080;50.908;6.916;2023-05-19T02:15:04;7.27;;;3.40;;
76262;SDS011;65080;50.908;6.916;2023-05-19T02:17:40;5.70;;;3.17;;
76262;SDS011;65080;50.908;6.916;2023-05-19T02:20:13;8.70;;;3.40;;
76262;SDS011;65080;50.908;6.916;2023-05-19T02:22:42;7.70;;;3.50;;
76262;SDS011;65080;50.908;6.916;2023-05-19T02:25:11;8.93;;;4.07;;
76262;SDS011;65080;50.908;6.916;2023-05-19T02:27:39;5.73;;;3.87;;
76262;SDS011;65080;50.908;6.916;2023-05-19T02:30:08;8.30;;;4.30;;
76262;SDS011;65080;50.908;6.916;2023-05-19T02:32:38;9.40;;;3.80;;
76262;SDS011;65080;50.908;6.916;2023-05-19T02:35:07;4.90;;;3.30;;
76262;SDS011;65080;50.908;6.916;2023-05-19T02:37:35;5.20;;;3.40;;
76262;SDS011;65080;50.908;6.916;2023-05-19T02:40:04;6.37;;;3.87;;
76262;SDS011;65080;50.908;6.916;2023-05-19T02:42:33;7.37;;;3.80;;
76262;SDS011;65080;50.908;6.916;2023-05-19T02:45:02;9.07;;;3.60;;
76262;SDS011;65080;50.908;6.916;2023-05-19T02:47:30;8.13;;;3.80;;
76262;SDS011;65080;50.908;6.916;2023-05-19T02:50:04;7.20;;;3.50;;
76262;SDS011;65080;50.908;6.916;2023-05-19T02:52:33;6.00;;;3.47;;
76262;SDS011;65080;50.908;6.916;2023-05-19T02:55:01;7.37;;;3.90;;
76262;SDS011;65080;50.908;6.916;2023-05-19T02:57:29;4.30;;;3.73;;
76262;SDS011;65080;50.908;6.916;2023-05-19T02:59:58;8.37;;;4.17;;
76262;SDS011;65080;50.908;6.916;2023-05-19T03:02:28;7.70;;;4.50;;
76262;SDS011;65080;50.908;6.916;2023-05-19T03:04:58;7.53;;;3.87;;
76262;SDS011;65080;50.908;6.916;2023-05-19T03:07:30;7.13;;;3.87;;
76262;SDS011;65080;50.908;6.916;2023-05-19T03:09:59;10.53;;;3.40;;
76262;SDS011;65080;50.908;6.916;2023-05-19T03:12:29;5.27;;;4.27;;
76262;SDS011;65080;50.908;6.916;2023-05-19T03:14:58;5.87;;;3.47;;
76262;SDS011;65080;50.908;6.916;2023-05-19T03:17:26;5.90;;;4.10;;
76262;SDS011;65080;50.908;6.916;2023-05-19T03:19:59;10.67;;;3.80;;
76262;SDS011;65080;50.908;6.916;2023-05-19T03:22:27;10.93;;;3.60;;
76262;SDS011;65080;50.908;6.916;2023-05-19T03:24:57;7.67;;;3.50;;
76262;SDS011;65080;50.908;6.916;2023-05-19T03:27:25;8.40;;;3.70;;
76262;SDS011;65080;50.908;6.916;2023-05-19T03:29:54;6.70;;;3.87;;
76262;SDS011;65080;50.908;6.916;2023-05-19T03:32:22;11.30;;;3.90;;
76262;SDS011;65080;50.908;6.916;2023-05-19T03:34:51;10.30;;;3.90;;
76262;SDS011;65080;50.908;6.916;2023-05-19T03:37:19;6.53;;;4.40;;
76262;SDS011;65080;50.908;6.916;2023-05-19T03:39:49;6.17;;;3.90;;
76262;SDS011;65080;50.908;6.916;2023-05-19T03:42:17;8.93;;;4.37;;
76262;SDS011;65080;50.908;6.916;2023-05-19T03:44:45;5.60;;;4.00;;
76262;SDS011;65080;50.908;6.916;2023-05-19T03:47:13;7.20;;;4.23;;
76262;SDS011;65080;50.908;6.916;2023-05-19T03:49:42;5.80;;;4.00;;
76262;SDS011;65080;50.908;6.916;2023-05-19T03:52:10;8.97;;;3.83;;
76262;SDS011;65080;50.908;6.916;2023-05-19T03:54:38;6.53;;;3.47;;
76262;SDS011;65080;50.908;6.916;2023-05-19T03:57:09;9.73;;;4.07;;
76262;SDS011;65080;50.908;6.916;2023-05-19T03:59:38;7.90;;;4.50;;
76262;SDS011;65080;50.908;6.916;2023-05-19T04:02:06;7.80;;;4.10;;
76262;SDS011;65080;50.908;6.916;2023-05-19T04:04:35;5.97;;;3.80;;
76262;SDS011;65080;50.908;6.916;2023-05-19T04:07:04;6.33;;;3.27;;
76262;SDS011;65080;50.908;6.916;2023-05-19T04:09:32;5.90;;;4.03;;
76262;SDS011;65080;50.908;6.916;2023-05-19T04:12:01;7.47;;;3.73;;
76262;SDS011;65080;50.908;6.916;2023-05-19T04:14:30;5.87;;;3.63;;
76262;SDS011;65080;50.908;6.916;2023-05-19T04:16:59;7.57;;;4.53;;
76262;SDS011;65080;50.908;6.916;2023-05-19T04:19:27;8.47;;;3.80;;
76262;SDS011;65080;50.908;6.916;2023-05-19T04:21:55;5.00;;;3.53;;
76262;SDS011;65080;50.908;6.916;2023-05-19T04:24:24;9.07;;;4.40;;
76262;SDS011;65080;50.908;6.916;2023-05-19T04:26:52;6.10;;;3.67;;
76262;SDS011;65080;50.908;6.916;2023-05-19T04:29:20;8.43;;;4.67;;
76262;SDS011;65080;50.908;6.916;2023-05-19T04:31:50;7.47;;;4.33;;
76262;SDS011;65080;50.908;6.916;2023-05-19T04:34:19;6.23;;;3.87;;
76262;SDS011;65080;50.908;6.916;2023-05-19T04:36:47;6.30;;;3.60;;
76262;SDS011;65080;50.908;6.916;2023-05-19T04:39:18;8.03;;;4.00;;
76262;SDS011;65080;50.908;6.916;2023-05-19T04:41:47;7.20;;;3.90;;
76262;SDS011;65080;50.908;6.916;2023-05-19T04:44:15;8.30;;;4.30;;
76262;SDS011;65080;50.908;6.916;2023-05-19T04:46:44;6.20;;;4.60;;
76262;SDS011;65080;50.908;6.916;2023-05-19T04:49:14;7.43;;;3.97;;
76262;SDS011;65080;50.908;6.916;2023-05-19T04:51:44;8.07;;;4.57;;
76262;SDS011;65080;50.908;6.916;2023-05-19T04:54:15;5.47;;;3.70;;
76262;SDS011;65080;50.908;6.916;2023-05-19T04:56:43;6.70;;;3.77;;
76262;SDS011;65080;50.908;6.916;2023-05-19T04:59:12;8.40;;;4.30;;
76262;SDS011;65080;50.908;6.916;2023-05-19T05:01:40;7.80;;;4.00;;
76262;SDS011;65080;50.908;6.916;2023-05-19T05:04:08;9.13;;;3.93;;
76262;SDS011;65080;50.908;6.916;2023-05-19T05:06:38;7.73;;;4.07;;
76262;SDS011;65080;50.908;6.916;2023-05-19T05:09:07;7.00;;;4.37;;
76262;SDS011;65080;50.908;6.916;2023-05-19T05:11:37;6.90;;;4.33;;
76262;SDS011;65080;50.908;6.916;2023-05-19T05:14:06;8.00;;;4.57;;
76262;SDS011;65080;50.908;6.916;2023-05-19T05:16:34;7.20;;;4.43;;
76262;SDS011;65080;50.908;6.916;2023-05-19T05:19:03;12.40;;;4.60;;
76262;SDS011;65080;50.908;6.916;2023-05-19T05:21:32;9.90;;;4.87;;
76262;SDS011;65080;50.908;6.916;2023-05-19T05:24:03;6.93;;;4.50;;
76262;SDS011;65080;50.908;6.916;2023-05-19T05:26:32;9.40;;;4.57;;
76262;SDS011;65080;50.908;6.916;2023-05-19T05:29:01;11.33;;;4.20;;
76262;SDS011;65080;50.908;6.916;2023-05-19T05:31:30;7.07;;;4.30;;
76262;SDS011;65080;50.908;6.916;2023-05-19T05:33:58;6.70;;;4.00;;
76262;SDS011;65080;50.908;6.916;2023-05-19T05:36:27;5.57;;;4.10;;
76262;SDS011;65080;50.908;6.916;2023-05-19T05:38:57;8.57;;;3.80;;
76262;SDS011;65080;50.908;6.916;2023-05-19T05:41:29;7.90;;;4.40;;
76262;SDS011;65080;50.908;6.916;2023-05-19T05:44:00;7.33;;;4.10;;
76262;SDS011;65080;50.908;6.916;2023-05-19T05:46:29;8.67;;;3.37;;
76262;SDS011;65080;50.908;6.916;2023-05-19T05:48:58;6.43;;;4.03;;
76262;SDS011;65080;50.908;6.916;2023-05-19T05:51:27;13.13;;;4.77;;
76262;SDS011;65080;50.908;6.916;2023-05-19T05:53:56;7.53;;;4.73;;
76262;SDS011;65080;50.908;6.916;2023-05-19T05:56:26;7.53;;;4.20;;
76262;SDS011;65080;50.908;6.916;2023-05-19T05:58:59;5.80;;;3.67;;
76262;SDS011;65080;50.908;6.916;2023-05-19T06:01:28;8.40;;;3.93;;
76262;SDS011;65080;50.908;6.916;2023-05-19T06:03:59;7.90;;;3.33;;
76262;SDS011;65080;50.908;6.916;2023-05-19T06:06:28;8.23;;;3.30;;
76262;SDS011;65080;50.908;6.916;2023-05-19T06:08:57;6.30;;;3.13;;
76262;SDS011;65080;50.908;6.916;2023-05-19T06:11:25;9.40;;;3.10;;
76262;SDS011;65080;50.908;6.916;2023-05-19T06:13:55;6.47;;;2.80;;
76262;SDS011;65080;50.908;6.916;2023-05-19T06:16:23;7.00;;;2.50;;
76262;SDS011;65080;50.908;6.916;2023-05-19T06:18:52;8.67;;;2.93;;
76262;SDS011;65080;50.908;6.916;2023-05-19T06:21:20;7.27;;;2.00;;
76262;SDS011;65080;50.908;6.916;2023-05-19T06:23:48;5.87;;;2.07;;
76262;SDS011;65080;50.908;6.916;2023-05-19T06:26:16;7.00;;;1.77;;
76262;SDS011;65080;50.908;6.916;2023-05-19T06:28:45;9.03;;;2.00;;
76262;SDS011;65080;50.908;6.916;2023-05-19T06:31:14;8.90;;;2.40;;
76262;SDS011;65080;50.908;6.916;2023-05-19T06:33:42;5.10;;;2.63;;
76262;SDS011;65080;50.908;6.916;2023-05-19T06:36:11;5.67;;;1.97;;
76262;SDS011;65080;50.908;6.916;2023-05-19T06:38:39;8.70;;;1.93;;
76262;SDS011;65080;50.908;6.916;2023-05-19T06:41:08;4.67;;;2.33;;
76262;SDS011;65080;50.908;6.916;2023-05-19T06:43:36;4.00;;;2.07;;
76262;SDS011;65080;50.908;6.916;2023-05-19T06:46:04;10.50;;;2.30;;
76262;SDS011;65080;50.908;6.916;2023-05-19T06:48:34;5.50;;;2.10;;
76262;SDS011;65080;50.908;6.916;2023-05-19T06:51:02;5.67;;;2.10;;
76262;SDS011;65080;50.908;6.916;2023-05-19T06:53:32;9.67;;;2.17;;
76262;SDS011;65080;50.908;6.916;2023-05-19T06:56:00;7.93;;;2.50;;
76262;SDS011;65080;50.908;6.916;2023-05-19T06:58:28;3.67;;;1.90;;
76262;SDS011;65080;50.908;6.916;2023-05-19T07:00:57;5.90;;;2.30;;
76262;SDS011;65080;50.908;6.916;2023-05-19T07:03:25;4.07;;;1.77;;
76262;SDS011;65080;50.908;6.916;2023-05-19T07:05:55;8.07;;;1.77;;
76262;SDS011;65080;50.908;6.916;2023-05-19T07:08:23;7.20;;;1.97;;
76262;SDS011;65080;50.908;6.916;2023-05-19T07:10:53;6.00;;;2.07;;
76262;SDS011;65080;50.908;6.916;2023-05-19T07:13:21;2.60;;;1.57;;
76262;SDS011;65080;50.908;6.916;2023-05-19T07:15:52;9.83;;;1.90;;
76262;SDS011;65080;50.908;6.916;2023-05-19T07:18:22;7.70;;;1.90;;
76262;SDS011;65080;50.908;6.916;2023-05-19T07:20:50;6.43;;;2.13;;
76262;SDS011;65080;50.908;6.916;2023-05-19T07:23:21;3.50;;;1.60;;
76262;SDS011;65080;50.908;6.916;2023-05-19T07:25:52;5.00;;;1.83;;
76262;SDS011;65080;50.908;6.916;2023-05-19T07:28:21;6.33;;;1.97;;
76262;SDS011;65080;50.908;6.916;2023-05-19T07:30:49;6.93;;;1.87;;
76262;SDS011;65080;50.908;6.916;2023-05-19T07:33:18;6.00;;;1.90;;
76262;SDS011;65080;50.908;6.916;2023-05-19T07:35:47;7.27;;;2.30;;
76262;SDS011;65080;50.908;6.916;2023-05-19T07:38:15;5.10;;;1.90;;
76262;SDS011;65080;50.908;6.916;2023-05-19T07:40:45;6.83;;;1.77;;
76262;SDS011;65080;50.908;6.916;2023-05-19T07:43:13;5.97;;;2.03;;
76262;SDS011;65080;50.908;6.916;2023-05-19T07:45:41;4.63;;;1.53;;
76262;SDS011;65080;50.908;6.916;2023-05-19T07:48:10;5.47;;;1.80;;
76262;SDS011;65080;50.908;6.916;2023-05-19T07:50:38;4.77;;;2.17;;
76262;SDS011;65080;50.908;6.916;2023-05-19T07:53:06;6.03;;;1.60;;
76262;SDS011;65080;50.908;6.916;2023-05-19T07:55:35;5.23;;;2.10;;
76262;SDS011;65080;50.908;6.916;2023-05-19T07:58:04;7.77;;;2.13;;
76262;SDS011;65080;50.908;6.916;2023-05-19T08:00:32;12.30;;;1.77;;
76262;SDS011;65080;50.908;6.916;2023-05-19T08:03:01;3.73;;;1.73;;
76262;SDS011;65080;50.908;6.916;2023-05-19T08:05:29;3.77;;;1.73;;
76262;SDS011;65080;50.908;6.916;2023-05-19T08:07:58;8.60;;;2.23;;
76262;SDS011;65080;50.908;6.916;2023-05-19T08:10:26;3.70;;;1.80;;
76262;SDS011;65080;50.908;6.916;2023-05-19T08:12:54;6.87;;;2.20;;
76262;SDS011;65080;50.908;6.916;2023-05-19T08:15:24;3.07;;;1.70;;
76262;SDS011;65080;50.908;6.916;2023-05-19T08:17:52;6.70;;;2.07;;
76262;SDS011;65080;50.908;6.916;2023-05-19T08:20:21;5.67;;;1.77;;
76262;SDS011;65080;50.908;6.916;2023-05-19T08:22:49;7.87;;;2.17;;
76262;SDS011;65080;50.908;6.916;2023-05-19T08:25:18;5.13;;;2.00;;
76262;SDS011;65080;50.908;6.916;2023-05-19T08:27:46;4.50;;;1.80;;
76262;SDS011;65080;50.908;6.916;2023-05-19T08:30:15;5.93;;;1.60;;
76262;SDS011;65080;50.908;6.916;2023-05-19T08:32:44;4.40;;;1.60;;
76262;SDS011;65080;50.908;6.916;2023-05-19T08:35:14;4.30;;;1.70;;
76262;SDS011;65080;50.908;6.916;2023-05-19T08:37:42;3.70;;;1.67;;
76262;SDS011;65080;50.908;6.916;2023-05-19T08:40:10;5.93;;;1.50;;
76262;SDS011;65080;50.908;6.916;2023-05-19T08:42:43;5.30;;;1.83;;
76262;SDS011;65080;50.908;6.916;2023-05-19T08:45:12;6.23;;;1.70;;
76262;SDS011;65080;50.908;6.916;2023-05-19T08:47:40;4.53;;;1.70;;
76262;SDS011;65080;50.908;6.916;2023-05-19T08:50:10;3.97;;;1.57;;
76262;SDS011;65080;50.908;6.916;2023-05-19T08:52:46;8.53;;;1.63;;
76262;SDS011;65080;50.908;6.916;2023-05-19T08:55:23;5.50;;;1.80;;
76262;SDS011;65080;50.908;6.916;2023-05-19T08:57:59;5.20;;;1.60;;
76262;SDS011;65080;50.908;6.916;2023-05-19T09:00:30;5.67;;;1.60;;
76262;SDS011;65080;50.908;6.916;2023-05-19T09:03:00;5.80;;;1.70;;
76262;SDS011;65080;50.908;6.916;2023-05-19T09:05:45;6.53;;;2.33;;
76262;SDS011;65080;50.908;6.916;2023-05-19T09:08:14;5.70;;;1.93;;
76262;SDS011;65080;50.908;6.916;2023-05-19T09:10:42;3.03;;;1.30;;
76262;SDS011;65080;50.908;6.916;2023-05-19T09:13:11;5.90;;;1.80;;
76262;SDS011;65080;50.908;6.916;2023-05-19T09:15:39;3.63;;;1.67;;
76262;SDS011;65080;50.908;6.916;2023-05-19T09:18:09;4.60;;;1.70;;
76262;SDS011;65080;50.908;6.916;2023-05-19T09:20:39;3.50;;;1.70;;
76262;SDS011;65080;50.908;6.916;2023-05-19T09:23:12;10.63;;;1.80;;
76262;SDS011;65080;50.908;6.916;2023-05-19T09:25:48;4.47;;;1.43;;
76262;SDS011;65080;50.908;6.916;2023-05-19T09:28:21;5.70;;;1.80;;
76262;SDS011;65080;50.908;6.916;2023-05-19T09:31:00;9.93;;;1.80;;
76262;SDS011;65080;50.908;6.916;2023-05-19T09:33:29;6.03;;;2.10;;
76262;SDS011;65080;50.908;6.916;2023-05-19T09:36:00;5.27;;;1.53;;
76262;SDS011;65080;50.908;6.916;2023-05-19T09:38:30;3.27;;;1.30;;
76262;SDS011;65080;50.908;6.916;2023-05-19T09:40:59;3.47;;;1.67;;
76262;SDS011;65080;50.908;6.916;2023-05-19T09:43:28;3.80;;;1.70;;
76262;SDS011;65080;50.908;6.916;2023-05-19T09:45:58;5.07;;;1.87;;
76262;SDS011;65080;50.908;6.916;2023-05-19T09:48:27;3.83;;;1.60;;
76262;SDS011;65080;50.908;6.916;2023-05-19T09:50:56;6.87;;;1.40;;
76262;SDS011;65080;50.908;6.916;2023-05-19T09:53:24;9.23;;;1.97;;
76262;SDS011;65080;50.908;6.916;2023-05-19T09:55:55;5.07;;;1.40;;
76262;SDS011;65080;50.908;6.916;2023-05-19T09:58:24;10.13;;;1.93;;
76262;SDS011;65080;50.908;6.916;2023-05-19T10:00:53;5.30;;;1.80;;
76262;SDS011;65080;50.908;6.916;2023-05-19T10:03:22;7.03;;;1.70;;
76262;SDS011;65080;50.908;6.916;2023-05-19T10:05:52;3.20;;;1.80;;
76262;SDS011;65080;50.908;6.916;2023-05-19T10:08:22;4.83;;;1.80;;
76262;SDS011;65080;50.908;6.916;2023-05-19T10:10:52;4.53;;;1.40;;
76262;SDS011;65080;50.908;6.916;2023-05-19T10:13:22;4.70;;;1.50;;
76262;SDS011;65080;50.908;6.916;2023-05-19T10:15:50;8.03;;;1.70;;
76262;SDS011;65080;50.908;6.916;2023-05-19T10:18:24;4.50;;;2.57;;
76262;SDS011;65080;50.908;6.916;2023-05-19T10:20:54;2.20;;;1.10;;
76262;SDS011;65080;50.908;6.916;2023-05-19T10:23:24;4.30;;;1.90;;
76262;SDS011;65080;50.908;6.916;2023-05-19T10:25:55;5.43;;;1.63;;
76262;SDS011;65080;50.908;6.916;2023-05-19T10:28:26;8.70;;;1.70;;
76262;SDS011;65080;50.908;6.916;2023-05-19T10:31:01;6.37;;;1.80;;
76262;SDS011;65080;50.908;6.916;2023-05-19T10:33:35;5.53;;;1.70;;
76262;SDS011;65080;50.908;6.916;2023-05-19T10:36:14;4.97;;;1.73;;
76262;SDS011;65080;50.908;6.916;2023-05-19T10:38:57;5.40;;;1.67;;
76262;SDS011;65080;50.908;6.916;2023-05-19T10:41:40;5.00;;;1.40;;
76262;SDS011;65080;50.908;6.916;2023-05-19T10:44:17;9.60;;;5.70;;
76262;SDS011;65080;50.908;6.916;2023-05-19T10:46:54;10.70;;;2.13;;
76262;SDS011;65080;50.908;6.916;2023-05-19T10:49:23;5.50;;;1.83;;
76262;SDS011;65080;50.908;6.916;2023-05-19T10:51:51;4.87;;;1.70;;
76262;SDS011;65080;50.908;6.916;2023-05-19T10:54:38;6.00;;;1.77;;
76262;SDS011;65080;50.908;6.916;2023-05-19T10:57:14;8.60;;;1.70;;
76262;SDS011;65080;50.908;6.916;2023-05-19T10:59:43;2.90;;;1.30;;
76262;SDS011;65080;50.908;6.916;2023-05-19T11:05:08;4.57;;;1.87;;
76262;SDS011;65080;50.908;6.916;2023-05-19T11:07:40;3.20;;;1.67;;
76262;SDS011;65080;50.908;6.916;2023-05-19T11:10:09;4.67;;;1.77;;
76262;SDS011;65080;50.908;6.916;2023-05-19T11:12:40;4.07;;;1.57;;
76262;SDS011;65080;50.908;6.916;2023-05-19T11:15:10;3.90;;;1.43;;
76262;SDS011;65080;50.908;6.916;2023-05-19T11:17:40;5.23;;;1.90;;
76262;SDS011;65080;50.908;6.916;2023-05-19T11:20:19;4.00;;;1.97;;
76262;SDS011;65080;50.908;6.916;2023-05-19T11:23:04;3.87;;;1.70;;
76262;SDS011;65080;50.908;6.916;2023-05-19T11:25:40;5.40;;;1.70;;
76262;SDS011;65080;50.908;6.916;2023-05-19T11:28:11;6.60;;;1.60;;
76262;SDS011;65080;50.908;6.916;2023-05-19T11:30:42;4.23;;;1.47;;
76262;SDS011;65080;50.908;6.916;2023-05-19T11:33:12;5.73;;;2.03;;
76262;SDS011;65080;50.908;6.916;2023-05-19T11:35:40;6.77;;;1.70;;
76262;SDS011;65080;50.908;6.916;2023-05-19T11:38:11;6.17;;;1.70;;
76262;SDS011;65080;50.908;6.916;2023-05-19T11:40:40;4.07;;;1.37;;
76262;SDS011;65080;50.908;6.916;2023-05-19T11:43:09;5.70;;;1.77;;
76262;SDS011;65080;50.908;6.916;2023-05-19T11:45:39;4.60;;;1.67;;
76262;SDS011;65080;50.908;6.916;2023-05-19T11:48:09;3.93;;;1.33;;
76262;SDS011;65080;50.908;6.916;2023-05-19T11:50:39;5.90;;;1.70;;
76262;SDS011;65080;50.908;6.916;2023-05-19T11:53:10;5.70;;;1.50;;
76262;SDS011;65080;50.908;6.916;2023-05-19T11:55:42;5.27;;;2.00;;
76262;SDS011;65080;50.908;6.916;2023-05-19T11:58:14;7.40;;;1.80;;
76262;SDS011;65080;50.908;6.916;2023-05-19T12:00:43;3.00;;;1.40;;
76262;SDS011;65080;50.908;6.916;2023-05-19T12:03:13;4.20;;;1.70;;
76262;SDS011;65080;50.908;6.916;2023-05-19T12:05:43;4.50;;;1.70;;
76262;SDS011;65080;50.908;6.916;2023-05-19T12:08:15;4.03;;;1.47;;
76262;SDS011;65080;50.908;6.916;2023-05-19T12:10:46;5.07;;;1.20;;
76262;SDS011;65080;50.908;6.916;2023-05-19T12:13:17;4.03;;;1.50;;
76262;SDS011;65080;50.908;6.916;2023-05-19T12:15:49;2.53;;;1.43;;
76262;SDS011;65080;50.908;6.916;2023-05-19T12:18:17;3.90;;;1.47;;
76262;SDS011;65080;50.908;6.916;2023-05-19T12:20:46;6.87;;;1.70;;
76262;SDS011;65080;50.908;6.916;2023-05-19T12:23:14;6.80;;;2.13;;
76262;SDS011;65080;50.908;6.916;2023-05-19T12:25:42;5.40;;;1.60;;
76262;SDS011;65080;50.908;6.916;2023-05-19T12:28:11;4.80;;;1.90;;
76262;SDS011;65080;50.908;6.916;2023-05-19T12:30:42;5.17;;;2.13;;
76262;SDS011;65080;50.908;6.916;2023-05-19T12:33:14;5.17;;;1.77;;
76262;SDS011;65080;50.908;6.916;2023-05-19T12:35:43;3.57;;;1.60;;
76262;SDS011;65080;50.908;6.916;2023-05-19T12:38:13;4.80;;;2.17;;
76262;SDS011;65080;50.908;6.916;2023-05-19T12:40:41;3.57;;;1.63;;
76262;SDS011;65080;50.908;6.916;2023-05-19T12:43:17;3.10;;;1.57;;
76262;SDS011;65080;50.908;6.916;2023-05-19T12:45:47;4.87;;;1.77;;
76262;SDS011;65080;50.908;6.916;2023-05-19T12:48:16;14.20;;;3.27;;
76262;SDS011;65080;50.908;6.916;2023-05-19T12:50:48;6.20;;;1.77;;
76262;SDS011;65080;50.908;6.916;2023-05-19T12:53:19;3.47;;;1.70;;
76262;SDS011;65080;50.908;6.916;2023-05-19T12:55:50;6.10;;;2.33;;
76262;SDS011;65080;50.908;6.916;2023-05-19T12:58:19;8.63;;;2.10;;
76262;SDS011;65080;50.908;6.916;2023-05-19T13:00:50;5.27;;;1.40;;
76262;SDS011;65080;50.908;6.916;2023-05-19T13:03:25;3.50;;;1.30;;
76262;SDS011;65080;50.908;6.916;2023-05-19T13:05:54;5.23;;;1.93;;
76262;SDS011;65080;50.908;6.916;2023-05-19T13:08:24;6.37;;;1.93;;
76262;SDS011;65080;50.908;6.916;2023-05-19T13:10:53;3.90;;;1.90;;
76262;SDS011;65080;50.908;6.916;2023-05-19T13:13:21;2.20;;;1.37;;
76262;SDS011;65080;50.908;6.916;2023-05-19T13:15:51;4.00;;;1.60;;
76262;SDS011;65080;50.908;6.916;2023-05-19T13:18:19;6.10;;;1.93;;
76262;SDS011;65080;50.908;6.916;2023-05-19T13:20:48;6.80;;;1.90;;
76262;SDS011;65080;50.908;6.916;2023-05-19T13:23:18;3.47;;;1.40;;
76262;SDS011;65080;50.908;6.916;2023-05-19T13:25:46;6.57;;;1.67;;
76262;SDS011;65080;50.908;6.916;2023-05-19T13:28:16;3.20;;;1.30;;
76262;SDS011;65080;50.908;6.916;2023-05-19T13:30:44;4.30;;;1.90;;
76262;SDS011;65080;50.908;6.916;2023-05-19T13:33:15;4.93;;;2.10;;
76262;SDS011;65080;50.908;6.916;2023-05-19T13:35:43;3.77;;;1.67;;
76262;SDS011;65080;50.908;6.916;2023-05-19T13:38:11;5.30;;;2.07;;
76262;SDS011;65080;50.908;6.916;2023-05-19T13:40:40;6.00;;;1.93;;
76262;SDS011;65080;50.908;6.916;2023-05-19T13:43:08;4.33;;;1.60;;
76262;SDS011;65080;50.908;6.916;2023-05-19T13:45:36;5.43;;;1.50;;
76262;SDS011;65080;50.908;6.916;2023-05-19T13:48:04;5.20;;;1.73;;
76262;SDS011;65080;50.908;6.916;2023-05-19T13:50:35;4.07;;;1.93;;
76262;SDS011;65080;50.908;6.916;2023-05-19T13:53:03;3.53;;;1.80;;
76262;SDS011;65080;50.908;6.916;2023-05-19T13:55:31;3.23;;;1.53;;
76262;SDS011;65080;50.908;6.916;2023-05-19T13:57:59;4.93;;;1.57;;
76262;SDS011;65080;50.908;6.916;2023-05-19T14:00:29;5.27;;;1.47;;
76262;SDS011;65080;50.908;6.916;2023-05-19T14:02:58;3.30;;;1.37;;
76262;SDS011;65080;50.908;6.916;2023-05-19T14:05:27;8.23;;;1.53;;
76262;SDS011;65080;50.908;6.916;2023-05-19T14:07:58;3.20;;;1.97;;
76262;SDS011;65080;50.908;6.916;2023-05-19T14:10:26;6.43;;;1.60;;
76262;SDS011;65080;50.908;6.916;2023-05-19T14:12:55;5.67;;;1.40;;
76262;SDS011;65080;50.908;6.916;2023-05-19T14:15:33;6.33;;;1.67;;
76262;SDS011;65080;50.908;6.916;2023-05-19T14:18:03;5.13;;;1.27;;
76262;SDS011;65080;50.908;6.916;2023-05-19T14:20:33;4.50;;;1.53;;
76262;SDS011;65080;50.908;6.916;2023-05-19T14:23:03;2.70;;;1.20;;
76262;SDS011;65080;50.908;6.916;2023-05-19T14:25:33;5.17;;;1.87;;
76262;SDS011;65080;50.908;6.916;2023-05-19T14:28:02;4.00;;;1.73;;
76262;SDS011;65080;50.908;6.916;2023-05-19T14:30:30;4.40;;;1.60;;
76262;SDS011;65080;50.908;6.916;2023-05-19T14:32:59;2.00;;;1.20;;
76262;SDS011;65080;50.908;6.916;2023-05-19T14:35:27;4.23;;;1.90;;
76262;SDS011;65080;50.908;6.916;2023-05-19T14:37:55;3.33;;;1.60;;
76262;SDS011;65080;50.908;6.916;2023-05-19T14:40:25;4.63;;;1.93;;
76262;SDS011;65080;50.908;6.916;2023-05-19T14:42:53;3.73;;;1.60;;
76262;SDS011;65080;50.908;6.916;2023-05-19T14:45:21;3.77;;;2.10;;
76262;SDS011;65080;50.908;6.916;2023-05-19T14:47:49;4.10;;;1.80;;
76262;SDS011;65080;50.908;6.916;2023-05-19T14:50:18;4.60;;;1.50;;
76262;SDS011;65080;50.908;6.916;2023-05-19T14:52:46;3.30;;;1.30;;
76262;SDS011;65080;50.908;6.916;2023-05-19T14:55:14;4.30;;;1.70;;
76262;SDS011;65080;50.908;6.916;2023-05-19T14:57:44;11.90;;;3.67;;
76262;SDS011;65080;50.908;6.916;2023-05-19T15:00:13;5.60;;;1.60;;
76262;SDS011;65080;50.908;6.916;2023-05-19T15:02:42;5.07;;;1.70;;
76262;SDS011;65080;50.908;6.916;2023-05-19T15:05:10;3.87;;;1.70;;
76262;SDS011;65080;50.908;6.916;2023-05-19T15:07:39;5.30;;;1.60;;
76262;SDS011;65080;50.908;6.916;2023-05-19T15:10:07;4.83;;;1.50;;